BAW53M EGLL-MYNN
Flight info
| Callsign | BAW53M |
|---|---|
| Flight time | N/A |
| Altitude | 36000 |
| Route | CPT L9 BUCGO DCT FELCA DCT NICXI DCT BAKUR DCT ABAGU DCT TIPUR DCT NEBIN/M084F360 DCT 54N020W 54N030W 53N040W 51N050W DCT ALLRY/N0491F360 DCT 50N054W/N0490F380 DCT LOPRO/N0483F400 DCT YYG DCT CAAPE DCT ALLEX DCT CELTK DCT SARDI DCT YAZUU Q167 ZIZZI DCT ZJAAY DCT KALDA DCT BGBRD Q101 SKARP DCT IDOLS DCT RROOO Y323 CARPX AR3 CASPR Y307 NUCAR AR3 KURAY |
| Aircraft | B772/H-SDE1E3FGHIJ3J5J6M1M2P2RWXYZ/LB1D1 |
Departure
| Time | 2026-05-05 12:56 |
|---|---|
| Airport | London Heathrow Airport (EGLL) |
Arrival
| Time | N/A |
|---|---|
| Airport | Lynden Pindling International Airport (MYNN) |
| Time | Latitude | Longitude | Altitude | Speed | Heading |
|---|---|---|---|---|---|
| 2026-05-05 11:57 | 51.47268 | -0.46302 | 91 ft | 0 kts | 56° |
| 2026-05-05 12:41 | 51.47260 | -0.46319 | 94 ft | 4 kts | 56° |
| 2026-05-05 12:41 | 51.47246 | -0.46355 | 91 ft | 3 kts | 56° |
| 2026-05-05 12:41 | 51.47232 | -0.46382 | 94 ft | 4 kts | 32° |
| 2026-05-05 12:41 | 51.47214 | -0.46392 | 92 ft | 4 kts | 345° |
| 2026-05-05 12:42 | 51.47191 | -0.46375 | 93 ft | 4 kts | 325° |
| 2026-05-05 12:42 | 51.47179 | -0.46361 | 93 ft | 1 kts | 326° |
| 2026-05-05 12:42 | 51.47178 | -0.46360 | 93 ft | 0 kts | 326° |
| 2026-05-05 12:46 | 51.47194 | -0.46378 | 91 ft | 6 kts | 326° |
| 2026-05-05 12:46 | 51.47229 | -0.46417 | 94 ft | 8 kts | 321° |
| 2026-05-05 12:46 | 51.47239 | -0.46499 | 93 ft | 8 kts | 268° |
| 2026-05-05 12:47 | 51.47238 | -0.46585 | 91 ft | 8 kts | 268° |
| 2026-05-05 12:47 | 51.47238 | -0.46672 | 91 ft | 8 kts | 270° |
| 2026-05-05 12:47 | 51.47238 | -0.46758 | 91 ft | 8 kts | 270° |
| 2026-05-05 12:47 | 51.47237 | -0.46841 | 91 ft | 6 kts | 269° |
| 2026-05-05 12:48 | 51.47203 | -0.46871 | 93 ft | 7 kts | 175° |
| 2026-05-05 12:48 | 51.47158 | -0.46868 | 93 ft | 7 kts | 177° |
| 2026-05-05 12:48 | 51.47112 | -0.46865 | 91 ft | 7 kts | 181° |
| 2026-05-05 12:48 | 51.47066 | -0.46866 | 91 ft | 7 kts | 180° |
| 2026-05-05 12:49 | 51.47020 | -0.46866 | 91 ft | 7 kts | 180° |
| 2026-05-05 12:49 | 51.46974 | -0.46866 | 91 ft | 7 kts | 180° |
| 2026-05-05 12:49 | 51.46928 | -0.46866 | 91 ft | 7 kts | 180° |
| 2026-05-05 12:49 | 51.46883 | -0.46865 | 91 ft | 7 kts | 179° |
| 2026-05-05 12:50 | 51.46837 | -0.46865 | 91 ft | 7 kts | 179° |
| 2026-05-05 12:50 | 51.46791 | -0.46864 | 94 ft | 7 kts | 179° |
| 2026-05-05 12:50 | 51.46750 | -0.46873 | 95 ft | 5 kts | 212° |
| 2026-05-05 12:50 | 51.46744 | -0.46929 | 95 ft | 5 kts | 273° |
| 2026-05-05 12:51 | 51.46745 | -0.47020 | 94 ft | 11 kts | 270° |
| 2026-05-05 12:51 | 51.46745 | -0.47147 | 94 ft | 11 kts | 270° |
| 2026-05-05 12:51 | 51.46745 | -0.47273 | 93 ft | 11 kts | 270° |
| 2026-05-05 12:51 | 51.46745 | -0.47399 | 91 ft | 11 kts | 270° |
| 2026-05-05 12:52 | 51.46744 | -0.47525 | 93 ft | 11 kts | 270° |
| 2026-05-05 12:52 | 51.46744 | -0.47651 | 92 ft | 11 kts | 270° |
| 2026-05-05 12:52 | 51.46744 | -0.47776 | 91 ft | 11 kts | 269° |
| 2026-05-05 12:52 | 51.46743 | -0.47902 | 91 ft | 11 kts | 270° |
| 2026-05-05 12:53 | 51.46743 | -0.48028 | 91 ft | 11 kts | 269° |
| 2026-05-05 12:53 | 51.46742 | -0.48154 | 91 ft | 11 kts | 269° |
| 2026-05-05 12:53 | 51.46741 | -0.48280 | 91 ft | 11 kts | 269° |
| 2026-05-05 12:53 | 51.46741 | -0.48406 | 91 ft | 11 kts | 270° |
| 2026-05-05 12:54 | 51.46741 | -0.48658 | 91 ft | 11 kts | 270° |
| 2026-05-05 12:54 | 51.46708 | -0.48746 | 93 ft | 10 kts | 192° |
| 2026-05-05 12:54 | 51.46636 | -0.48753 | 94 ft | 10 kts | 187° |
| 2026-05-05 12:55 | 51.46567 | -0.48786 | 93 ft | 10 kts | 193° |
| 2026-05-05 12:55 | 51.46499 | -0.48768 | 96 ft | 10 kts | 140° |
| 2026-05-05 12:55 | 51.46479 | -0.48659 | 95 ft | 10 kts | 94° |
| 2026-05-05 12:55 | 51.46478 | -0.48540 | 92 ft | 14 kts | 90° |
| 2026-05-05 12:56 | 51.46479 | -0.48172 | 92 ft | 64 kts | 90° |
| 2026-05-05 12:56 | 51.46482 | -0.47068 | 94 ft | 131 kts | 89° |
| 2026-05-05 12:56 | 51.46481 | -0.45296 | 130 ft | 181 kts | 90° |
| 2026-05-05 12:56 | 51.46425 | -0.43275 | 906 ft | 181 kts | 89° |
| 2026-05-05 12:57 | 51.46400 | -0.41286 | 1781 ft | 175 kts | 92° |
| 2026-05-05 12:57 | 51.46008 | -0.39338 | 2205 ft | 196 kts | 122° |
| 2026-05-05 12:57 | 51.44987 | -0.37967 | 2903 ft | 195 kts | 154° |
| 2026-05-05 12:57 | 51.43651 | -0.37551 | 3400 ft | 199 kts | 178° |
| 2026-05-05 12:58 | 51.42291 | -0.37788 | 3895 ft | 198 kts | 195° |
| 2026-05-05 12:58 | 51.41043 | -0.38815 | 4211 ft | 206 kts | 222° |
| 2026-05-05 12:58 | 51.40189 | -0.40709 | 4522 ft | 221 kts | 252° |
| 2026-05-05 12:58 | 51.40000 | -0.43252 | 4624 ft | 239 kts | 278° |
| 2026-05-05 12:59 | 51.40297 | -0.45943 | 4853 ft | 259 kts | 283° |
| 2026-05-05 12:59 | 51.40687 | -0.48797 | 5442 ft | 263 kts | 284° |
| 2026-05-05 12:59 | 51.41068 | -0.51690 | 6041 ft | 267 kts | 282° |
| 2026-05-05 13:00 | 51.41791 | -0.57593 | 7226 ft | 273 kts | 281° |
| 2026-05-05 13:00 | 51.42135 | -0.60602 | 7782 ft | 276 kts | 281° |
| 2026-05-05 13:01 | 51.43153 | -0.69868 | 9437 ft | 286 kts | 281° |
| 2026-05-05 13:01 | 51.43493 | -0.73028 | 9994 ft | 288 kts | 281° |
| 2026-05-05 13:01 | 51.43848 | -0.76240 | 10271 ft | 300 kts | 282° |
| 2026-05-05 13:01 | 51.44262 | -0.79621 | 10405 ft | 317 kts | 282° |
| 2026-05-05 13:02 | 51.44704 | -0.83190 | 10548 ft | 336 kts | 282° |
| 2026-05-05 13:02 | 51.45169 | -0.86970 | 10700 ft | 356 kts | 282° |
| 2026-05-05 13:02 | 51.45642 | -0.90951 | 11075 ft | 370 kts | 281° |
| 2026-05-05 13:02 | 51.46113 | -0.95064 | 11688 ft | 378 kts | 281° |
| 2026-05-05 13:03 | 51.46587 | -0.99240 | 12413 ft | 383 kts | 281° |
| 2026-05-05 13:03 | 51.47068 | -1.03464 | 13215 ft | 387 kts | 281° |
| 2026-05-05 13:03 | 51.47561 | -1.07738 | 13928 ft | 392 kts | 281° |
| 2026-05-05 13:03 | 51.48062 | -1.12065 | 14617 ft | 396 kts | 281° |
| 2026-05-05 13:04 | 51.48563 | -1.16420 | 15324 ft | 398 kts | 281° |
| 2026-05-05 13:04 | 51.48930 | -1.19290 | 15703 ft | 395 kts | 285° |
| 2026-05-05 13:04 | 51.50688 | -1.24441 | 16315 ft | 404 kts | 313° |
| 2026-05-05 13:04 | 51.52744 | -1.27497 | 16807 ft | 406 kts | 318° |
| 2026-05-05 13:05 | 51.54859 | -1.30553 | 17353 ft | 411 kts | 317° |
| 2026-05-05 13:05 | 51.56962 | -1.33685 | 18012 ft | 413 kts | 316° |
| 2026-05-05 13:05 | 51.59031 | -1.36897 | 18588 ft | 415 kts | 313° |
| 2026-05-05 13:05 | 51.60287 | -1.39238 | 18927 ft | 417 kts | 307° |
| 2026-05-05 13:06 | 51.61982 | -1.43041 | 19449 ft | 419 kts | 301° |
| 2026-05-05 13:06 | 51.63412 | -1.47141 | 19975 ft | 420 kts | 296° |
| 2026-05-05 13:06 | 51.64763 | -1.51351 | 20446 ft | 424 kts | 296° |
| 2026-05-05 13:06 | 51.66125 | -1.55579 | 20931 ft | 427 kts | 296° |
| 2026-05-05 13:07 | 51.67513 | -1.59822 | 21425 ft | 429 kts | 296° |
| 2026-05-05 13:07 | 51.68889 | -1.64121 | 21910 ft | 431 kts | 293° |
| 2026-05-05 13:07 | 51.69958 | -1.68579 | 22382 ft | 433 kts | 285° |
| 2026-05-05 13:07 | 51.70728 | -1.73285 | 22847 ft | 435 kts | 280° |
| 2026-05-05 13:08 | 51.71165 | -1.78109 | 23312 ft | 436 kts | 274° |
| 2026-05-05 13:08 | 51.71475 | -1.83012 | 23704 ft | 440 kts | 274° |
| 2026-05-05 13:08 | 51.71798 | -1.87933 | 24091 ft | 443 kts | 275° |
| 2026-05-05 13:08 | 51.72142 | -1.92879 | 24501 ft | 445 kts | 275° |
| 2026-05-05 13:09 | 51.72495 | -1.97844 | 24909 ft | 447 kts | 275° |
| 2026-05-05 13:09 | 51.72852 | -2.02838 | 25318 ft | 448 kts | 275° |
| 2026-05-05 13:09 | 51.73205 | -2.07842 | 25695 ft | 451 kts | 275° |
| 2026-05-05 13:09 | 51.73556 | -2.12880 | 26085 ft | 453 kts | 275° |
| 2026-05-05 13:10 | 51.73908 | -2.17940 | 26473 ft | 455 kts | 275° |
| 2026-05-05 13:10 | 51.74255 | -2.22957 | 26838 ft | 457 kts | 275° |
| 2026-05-05 13:10 | 51.74607 | -2.28062 | 27196 ft | 459 kts | 275° |
| 2026-05-05 13:10 | 51.74961 | -2.33197 | 27556 ft | 461 kts | 275° |
| 2026-05-05 13:11 | 51.75314 | -2.38361 | 27916 ft | 463 kts | 275° |
| 2026-05-05 13:11 | 51.75666 | -2.43541 | 28258 ft | 465 kts | 274° |
| 2026-05-05 13:11 | 51.76016 | -2.48749 | 28574 ft | 467 kts | 274° |
| 2026-05-05 13:11 | 51.76367 | -2.54000 | 28891 ft | 469 kts | 274° |
| 2026-05-05 13:12 | 51.76701 | -2.59255 | 29173 ft | 471 kts | 274° |
| 2026-05-05 13:12 | 51.77023 | -2.64459 | 29451 ft | 473 kts | 274° |
| 2026-05-05 13:12 | 51.77360 | -2.69753 | 29742 ft | 474 kts | 274° |
| 2026-05-05 13:12 | 51.77701 | -2.75054 | 29993 ft | 476 kts | 274° |
| 2026-05-05 13:13 | 51.78046 | -2.80407 | 30213 ft | 477 kts | 274° |
| 2026-05-05 13:13 | 51.78388 | -2.85757 | 30464 ft | 478 kts | 274° |
| 2026-05-05 13:13 | 51.78726 | -2.91095 | 30727 ft | 478 kts | 274° |
| 2026-05-05 13:13 | 51.79062 | -2.96441 | 31006 ft | 478 kts | 274° |
| 2026-05-05 13:14 | 51.79394 | -3.01786 | 31272 ft | 478 kts | 274° |
| 2026-05-05 13:14 | 51.79724 | -3.07144 | 31534 ft | 478 kts | 274° |
| 2026-05-05 13:14 | 51.80047 | -3.12420 | 31783 ft | 478 kts | 274° |
| 2026-05-05 13:14 | 51.80371 | -3.17767 | 32065 ft | 478 kts | 274° |
| 2026-05-05 13:15 | 51.80693 | -3.23121 | 32347 ft | 478 kts | 275° |
| 2026-05-05 13:15 | 51.81014 | -3.28484 | 32618 ft | 478 kts | 275° |
| 2026-05-05 13:15 | 51.81332 | -3.33832 | 32883 ft | 479 kts | 275° |
| 2026-05-05 13:15 | 51.81647 | -3.39192 | 33128 ft | 480 kts | 275° |
| 2026-05-05 13:16 | 51.81962 | -3.44564 | 33368 ft | 481 kts | 275° |
| 2026-05-05 13:16 | 51.82274 | -3.49947 | 33601 ft | 481 kts | 275° |
| 2026-05-05 13:16 | 51.82652 | -3.55340 | 33862 ft | 481 kts | 279° |
| 2026-05-05 13:16 | 51.83283 | -3.60603 | 34079 ft | 481 kts | 282° |
| 2026-05-05 13:17 | 51.83983 | -3.65899 | 34274 ft | 482 kts | 282° |
| 2026-05-05 13:17 | 51.84699 | -3.71205 | 34501 ft | 482 kts | 282° |
| 2026-05-05 13:17 | 51.85408 | -3.76501 | 34743 ft | 481 kts | 282° |
| 2026-05-05 13:17 | 51.86109 | -3.81807 | 34975 ft | 481 kts | 282° |
| 2026-05-05 13:18 | 51.86796 | -3.87098 | 35210 ft | 481 kts | 282° |
| 2026-05-05 13:18 | 51.87476 | -3.92394 | 35442 ft | 480 kts | 282° |
| 2026-05-05 13:18 | 51.88150 | -3.97692 | 35670 ft | 480 kts | 282° |
| 2026-05-05 13:18 | 51.88820 | -4.02989 | 35885 ft | 480 kts | 282° |
| 2026-05-05 13:19 | 51.90155 | -4.13605 | 35994 ft | 485 kts | 282° |
| 2026-05-05 13:19 | 51.91494 | -4.24323 | 36017 ft | 485 kts | 282° |
| 2026-05-05 13:20 | 51.92813 | -4.34962 | 36019 ft | 479 kts | 282° |
| 2026-05-05 13:20 | 51.94112 | -4.45520 | 36030 ft | 477 kts | 282° |
| 2026-05-05 13:21 | 51.95400 | -4.56068 | 36035 ft | 476 kts | 282° |
| 2026-05-05 13:21 | 51.96676 | -4.66607 | 36041 ft | 476 kts | 282° |
| 2026-05-05 13:22 | 51.97937 | -4.77099 | 36045 ft | 477 kts | 282° |
| 2026-05-05 13:22 | 51.99202 | -4.87696 | 36049 ft | 478 kts | 282° |
| 2026-05-05 13:23 | 52.00472 | -4.98296 | 36052 ft | 478 kts | 284° |
| 2026-05-05 13:23 | 52.02600 | -5.08502 | 36058 ft | 477 kts | 295° |
| 2026-05-05 13:24 | 52.05753 | -5.17884 | 36062 ft | 476 kts | 302° |
| 2026-05-05 13:24 | 52.09215 | -5.27065 | 36062 ft | 476 kts | 302° |
| 2026-05-05 13:25 | 52.12649 | -5.36292 | 36061 ft | 476 kts | 301° |
| 2026-05-05 13:25 | 52.16039 | -5.45548 | 36066 ft | 475 kts | 301° |
| 2026-05-05 13:26 | 52.19391 | -5.54746 | 36066 ft | 475 kts | 300° |
| 2026-05-05 13:26 | 52.22699 | -5.64052 | 36067 ft | 473 kts | 296° |
| 2026-05-05 13:27 | 52.25102 | -5.74036 | 36071 ft | 472 kts | 285° |
| 2026-05-05 13:27 | 52.26597 | -5.84469 | 36073 ft | 471 kts | 282° |
| 2026-05-05 13:28 | 52.28003 | -5.94922 | 36069 ft | 471 kts | 282° |
| 2026-05-05 13:28 | 52.29427 | -6.05373 | 36071 ft | 471 kts | 282° |
| 2026-05-05 13:29 | 52.30854 | -6.15753 | 36070 ft | 471 kts | 282° |
| 2026-05-05 13:29 | 52.32285 | -6.26187 | 36071 ft | 470 kts | 282° |
| 2026-05-05 13:30 | 52.33708 | -6.36639 | 36070 ft | 470 kts | 282° |
| 2026-05-05 13:30 | 52.35120 | -6.47099 | 36072 ft | 470 kts | 282° |
| 2026-05-05 13:31 | 52.36521 | -6.57556 | 36070 ft | 470 kts | 282° |
| 2026-05-05 13:31 | 52.37906 | -6.67959 | 36074 ft | 470 kts | 282° |
| 2026-05-05 13:32 | 52.39287 | -6.78419 | 36071 ft | 470 kts | 282° |
| 2026-05-05 13:32 | 52.40658 | -6.88877 | 36070 ft | 470 kts | 282° |
| 2026-05-05 13:33 | 52.42015 | -6.99301 | 36073 ft | 469 kts | 282° |
| 2026-05-05 13:33 | 52.43368 | -7.09772 | 36075 ft | 469 kts | 282° |
| 2026-05-05 13:34 | 52.44711 | -7.20246 | 36079 ft | 469 kts | 282° |
| 2026-05-05 13:34 | 52.46036 | -7.30652 | 36076 ft | 469 kts | 281° |
| 2026-05-05 13:35 | 52.47361 | -7.41144 | 36076 ft | 468 kts | 281° |
| 2026-05-05 13:35 | 52.48676 | -7.51634 | 36078 ft | 468 kts | 281° |
| 2026-05-05 13:36 | 52.49972 | -7.62035 | 36080 ft | 468 kts | 281° |
| 2026-05-05 13:36 | 52.51635 | -7.72395 | 36086 ft | 468 kts | 287° |
| 2026-05-05 13:37 | 52.53532 | -7.82629 | 36087 ft | 468 kts | 287° |
| 2026-05-05 13:37 | 52.55389 | -7.92820 | 36085 ft | 468 kts | 286° |
| 2026-05-05 13:38 | 52.57229 | -8.03102 | 36089 ft | 469 kts | 286° |
| 2026-05-05 13:38 | 52.59060 | -8.13400 | 36095 ft | 469 kts | 286° |
| 2026-05-05 13:39 | 52.60792 | -8.23759 | 36094 ft | 469 kts | 285° |
| 2026-05-05 13:39 | 52.62448 | -8.34060 | 36097 ft | 469 kts | 284° |
| 2026-05-05 13:40 | 52.64112 | -8.44429 | 36097 ft | 468 kts | 284° |
| 2026-05-05 13:40 | 52.65779 | -8.54809 | 36099 ft | 468 kts | 284° |
| 2026-05-05 13:41 | 52.67439 | -8.65179 | 36101 ft | 468 kts | 284° |
| 2026-05-05 13:41 | 52.69093 | -8.75574 | 36102 ft | 468 kts | 284° |
| 2026-05-05 13:42 | 52.70730 | -8.85925 | 36103 ft | 468 kts | 284° |
| 2026-05-05 13:42 | 52.72360 | -8.96304 | 36104 ft | 467 kts | 284° |
| 2026-05-05 13:43 | 52.73973 | -9.06630 | 36105 ft | 467 kts | 284° |
| 2026-05-05 13:43 | 52.75587 | -9.17033 | 36105 ft | 467 kts | 284° |
| 2026-05-05 13:44 | 52.77189 | -9.27430 | 36108 ft | 467 kts | 284° |
| 2026-05-05 13:44 | 52.78782 | -9.37834 | 36114 ft | 467 kts | 284° |
| 2026-05-05 13:45 | 52.80358 | -9.48187 | 36119 ft | 467 kts | 284° |
| 2026-05-05 13:45 | 52.81934 | -9.58612 | 36118 ft | 467 kts | 284° |
| 2026-05-05 13:46 | 52.83499 | -9.69032 | 36119 ft | 467 kts | 283° |
| 2026-05-05 13:46 | 52.85055 | -9.79459 | 36123 ft | 466 kts | 283° |
| 2026-05-05 13:47 | 52.86600 | -9.89885 | 36124 ft | 466 kts | 283° |
| 2026-05-05 13:47 | 52.88127 | -10.00257 | 36127 ft | 466 kts | 283° |
| 2026-05-05 13:48 | 52.89655 | -10.10702 | 36130 ft | 466 kts | 283° |
| 2026-05-05 13:48 | 52.91173 | -10.21147 | 36135 ft | 466 kts | 283° |
| 2026-05-05 13:49 | 52.92679 | -10.31583 | 36138 ft | 465 kts | 283° |
| 2026-05-05 13:49 | 52.94176 | -10.42032 | 36139 ft | 465 kts | 283° |
| 2026-05-05 13:50 | 52.95653 | -10.52406 | 36140 ft | 465 kts | 283° |
| 2026-05-05 13:50 | 52.97131 | -10.62857 | 36143 ft | 465 kts | 283° |
| 2026-05-05 13:51 | 52.98597 | -10.73301 | 36145 ft | 464 kts | 283° |
| 2026-05-05 13:51 | 53.00054 | -10.83747 | 36149 ft | 464 kts | 283° |
| 2026-05-05 13:52 | 53.01501 | -10.94198 | 36152 ft | 464 kts | 283° |
| 2026-05-05 13:52 | 53.02931 | -11.04592 | 36151 ft | 464 kts | 283° |
| 2026-05-05 13:53 | 53.04358 | -11.15043 | 36153 ft | 463 kts | 283° |
| 2026-05-05 13:53 | 53.05767 | -11.25432 | 36162 ft | 463 kts | 283° |
| 2026-05-05 13:54 | 53.07175 | -11.35894 | 36159 ft | 462 kts | 283° |
| 2026-05-05 13:54 | 53.08337 | -11.44584 | 36167 ft | 462 kts | 282° |
| 2026-05-05 13:55 | 53.09726 | -11.55034 | 36160 ft | 462 kts | 282° |
| 2026-05-05 13:55 | 53.11324 | -11.67160 | 36166 ft | 462 kts | 282° |
| 2026-05-05 13:56 | 53.12461 | -11.75844 | 36167 ft | 461 kts | 282° |
| 2026-05-05 13:56 | 53.13821 | -11.86305 | 36168 ft | 461 kts | 282° |
| 2026-05-05 13:57 | 53.15170 | -11.96760 | 36172 ft | 461 kts | 282° |
| 2026-05-05 13:57 | 53.16508 | -12.07210 | 36172 ft | 461 kts | 282° |
| 2026-05-05 13:58 | 53.17828 | -12.17594 | 36174 ft | 461 kts | 282° |
| 2026-05-05 13:58 | 53.19150 | -12.28069 | 36174 ft | 460 kts | 282° |
| 2026-05-05 13:59 | 53.21105 | -12.43710 | 36181 ft | 460 kts | 282° |
| 2026-05-05 14:00 | 53.23047 | -12.59431 | 36182 ft | 460 kts | 281° |
| 2026-05-05 14:00 | 53.24329 | -12.69901 | 36182 ft | 460 kts | 281° |
| 2026-05-05 14:01 | 53.25599 | -12.80366 | 36186 ft | 460 kts | 281° |
| 2026-05-05 14:01 | 53.26857 | -12.90802 | 36190 ft | 460 kts | 281° |
| 2026-05-05 14:02 | 53.28110 | -13.01285 | 36189 ft | 460 kts | 281° |
| 2026-05-05 14:02 | 53.29356 | -13.11792 | 36187 ft | 460 kts | 281° |
| 2026-05-05 14:03 | 53.30585 | -13.22243 | 36190 ft | 459 kts | 281° |
| 2026-05-05 14:03 | 53.31808 | -13.32721 | 36189 ft | 459 kts | 281° |
| 2026-05-05 14:04 | 53.33023 | -13.43217 | 36197 ft | 459 kts | 281° |
| 2026-05-05 14:04 | 53.34229 | -13.53719 | 36198 ft | 459 kts | 281° |
| 2026-05-05 14:05 | 53.35417 | -13.64156 | 36198 ft | 459 kts | 281° |
| 2026-05-05 14:05 | 53.36601 | -13.74640 | 36197 ft | 459 kts | 281° |
| 2026-05-05 14:06 | 53.37780 | -13.85163 | 36200 ft | 459 kts | 280° |
| 2026-05-05 14:06 | 53.38948 | -13.95679 | 36202 ft | 459 kts | 280° |
| 2026-05-05 14:07 | 53.40105 | -14.06185 | 36202 ft | 458 kts | 280° |
| 2026-05-05 14:07 | 53.41254 | -14.16710 | 36205 ft | 458 kts | 280° |
| 2026-05-05 14:08 | 53.42392 | -14.27231 | 36204 ft | 458 kts | 280° |
| 2026-05-05 14:08 | 53.43515 | -14.37695 | 36207 ft | 458 kts | 280° |
| 2026-05-05 14:09 | 53.44636 | -14.48235 | 36207 ft | 458 kts | 280° |
| 2026-05-05 14:09 | 53.45746 | -14.58762 | 36206 ft | 458 kts | 279° |
| 2026-05-05 14:10 | 53.46849 | -14.69309 | 36210 ft | 458 kts | 279° |
| 2026-05-05 14:10 | 53.47940 | -14.79849 | 36212 ft | 458 kts | 279° |
| 2026-05-05 14:11 | 53.49016 | -14.90327 | 36213 ft | 458 kts | 279° |
| 2026-05-05 14:11 | 53.50091 | -15.00872 | 36210 ft | 458 kts | 279° |
| 2026-05-05 14:12 | 53.51311 | -15.11383 | 36213 ft | 458 kts | 281° |
| 2026-05-05 14:12 | 53.52615 | -15.21860 | 36212 ft | 458 kts | 281° |
| 2026-05-05 14:13 | 53.53894 | -15.32306 | 36217 ft | 458 kts | 281° |
| 2026-05-05 14:13 | 53.55154 | -15.42834 | 36215 ft | 458 kts | 281° |
| 2026-05-05 14:14 | 53.56385 | -15.53280 | 36218 ft | 458 kts | 281° |
| 2026-05-05 14:14 | 53.57613 | -15.63797 | 36217 ft | 458 kts | 281° |
| 2026-05-05 14:15 | 53.58833 | -15.74321 | 36220 ft | 458 kts | 281° |
| 2026-05-05 14:15 | 53.60044 | -15.84847 | 36220 ft | 458 kts | 281° |
| 2026-05-05 14:16 | 53.61244 | -15.95366 | 36222 ft | 458 kts | 280° |
| 2026-05-05 14:16 | 53.62429 | -16.05838 | 36220 ft | 458 kts | 280° |
| 2026-05-05 14:17 | 53.63612 | -16.16382 | 36221 ft | 458 kts | 280° |
| 2026-05-05 14:17 | 53.64787 | -16.26940 | 36225 ft | 458 kts | 280° |
| 2026-05-05 14:18 | 53.65953 | -16.37507 | 36223 ft | 458 kts | 280° |
| 2026-05-05 14:18 | 53.67109 | -16.48079 | 36222 ft | 458 kts | 280° |
| 2026-05-05 14:19 | 53.68249 | -16.58586 | 36223 ft | 458 kts | 280° |
| 2026-05-05 14:19 | 53.69387 | -16.69180 | 36234 ft | 458 kts | 280° |
| 2026-05-05 14:20 | 53.70517 | -16.79778 | 36228 ft | 459 kts | 280° |
| 2026-05-05 14:20 | 53.71639 | -16.90397 | 36229 ft | 459 kts | 280° |
| 2026-05-05 14:21 | 53.72750 | -17.01012 | 36229 ft | 459 kts | 280° |
| 2026-05-05 14:21 | 53.73846 | -17.11579 | 36230 ft | 459 kts | 279° |
| 2026-05-05 14:22 | 53.74939 | -17.22201 | 36231 ft | 459 kts | 279° |
| 2026-05-05 14:22 | 53.76024 | -17.32852 | 36230 ft | 459 kts | 279° |
| 2026-05-05 14:23 | 53.77099 | -17.43506 | 36229 ft | 459 kts | 279° |
| 2026-05-05 14:23 | 53.78164 | -17.54158 | 36233 ft | 460 kts | 279° |
| 2026-05-05 14:24 | 53.79216 | -17.64776 | 36233 ft | 460 kts | 279° |
| 2026-05-05 14:24 | 53.80265 | -17.75460 | 36233 ft | 460 kts | 279° |
| 2026-05-05 14:25 | 53.81306 | -17.86176 | 36235 ft | 460 kts | 279° |
| 2026-05-05 14:25 | 53.82330 | -17.96806 | 36236 ft | 461 kts | 279° |
| 2026-05-05 14:26 | 53.83352 | -18.07531 | 36237 ft | 461 kts | 279° |
| 2026-05-05 14:26 | 53.84365 | -18.18267 | 36235 ft | 462 kts | 279° |
| 2026-05-05 14:27 | 53.85371 | -18.29023 | 36239 ft | 462 kts | 279° |
| 2026-05-05 14:27 | 53.86361 | -18.39731 | 36239 ft | 462 kts | 279° |
| 2026-05-05 14:28 | 53.87348 | -18.50505 | 36240 ft | 462 kts | 279° |
| 2026-05-05 14:28 | 53.88326 | -18.61300 | 36238 ft | 463 kts | 279° |
| 2026-05-05 14:29 | 53.89295 | -18.72098 | 36236 ft | 463 kts | 279° |
| 2026-05-05 14:29 | 53.90254 | -18.82908 | 36244 ft | 463 kts | 279° |
| 2026-05-05 14:30 | 53.91198 | -18.93653 | 36242 ft | 464 kts | 279° |
| 2026-05-05 14:30 | 53.92139 | -19.04486 | 36242 ft | 464 kts | 279° |
| 2026-05-05 14:31 | 53.93071 | -19.15329 | 36244 ft | 464 kts | 279° |
| 2026-05-05 14:31 | 53.93994 | -19.26181 | 36247 ft | 465 kts | 279° |
| 2026-05-05 14:32 | 53.94903 | -19.36993 | 36245 ft | 465 kts | 279° |
| 2026-05-05 14:32 | 53.95809 | -19.47895 | 36246 ft | 465 kts | 278° |
| 2026-05-05 14:33 | 53.96705 | -19.58798 | 36246 ft | 466 kts | 278° |
| 2026-05-05 14:33 | 53.97586 | -19.69639 | 36243 ft | 466 kts | 278° |
| 2026-05-05 14:34 | 53.98465 | -19.80576 | 36245 ft | 467 kts | 278° |
| 2026-05-05 14:34 | 53.99336 | -19.91530 | 36250 ft | 468 kts | 278° |
| 2026-05-05 14:35 | 54.00141 | -20.02506 | 36250 ft | 468 kts | 276° |
| 2026-05-05 14:35 | 54.00616 | -20.13563 | 36251 ft | 469 kts | 275° |
| 2026-05-05 14:36 | 54.01020 | -20.24571 | 36252 ft | 469 kts | 275° |
| 2026-05-05 14:36 | 54.01432 | -20.35666 | 36250 ft | 470 kts | 275° |
| 2026-05-05 14:37 | 54.01849 | -20.46764 | 36254 ft | 470 kts | 275° |
| 2026-05-05 14:37 | 54.02264 | -20.57885 | 36253 ft | 471 kts | 275° |
| 2026-05-05 14:38 | 54.02666 | -20.68937 | 36256 ft | 471 kts | 275° |
| 2026-05-05 14:38 | 54.03060 | -20.80068 | 36254 ft | 471 kts | 275° |
| 2026-05-05 14:39 | 54.03445 | -20.91221 | 36255 ft | 471 kts | 275° |
| 2026-05-05 14:39 | 54.03816 | -21.02296 | 36256 ft | 471 kts | 275° |
| 2026-05-05 14:40 | 54.04179 | -21.13464 | 36258 ft | 471 kts | 275° |
| 2026-05-05 14:40 | 54.04532 | -21.24608 | 36258 ft | 471 kts | 275° |
| 2026-05-05 14:41 | 54.04874 | -21.35753 | 36260 ft | 471 kts | 275° |
| 2026-05-05 14:41 | 54.05204 | -21.46829 | 36258 ft | 471 kts | 275° |
| 2026-05-05 14:42 | 54.05526 | -21.57986 | 36261 ft | 471 kts | 275° |
| 2026-05-05 14:42 | 54.05838 | -21.69130 | 36263 ft | 471 kts | 275° |
| 2026-05-05 14:43 | 54.06139 | -21.80282 | 36263 ft | 471 kts | 274° |
| 2026-05-05 14:43 | 54.06429 | -21.91420 | 36267 ft | 471 kts | 274° |
| 2026-05-05 14:44 | 54.06708 | -22.02496 | 36266 ft | 471 kts | 274° |
| 2026-05-05 14:44 | 54.06935 | -22.11832 | 36268 ft | 471 kts | 274° |
| 2026-05-05 14:45 | 54.07195 | -22.22909 | 36266 ft | 470 kts | 274° |
| 2026-05-05 14:45 | 54.07446 | -22.34043 | 36265 ft | 470 kts | 274° |
| 2026-05-05 14:46 | 54.07686 | -22.45182 | 36265 ft | 470 kts | 274° |
| 2026-05-05 14:46 | 54.07917 | -22.56331 | 36269 ft | 470 kts | 274° |
| 2026-05-05 14:47 | 54.08137 | -22.67465 | 36269 ft | 470 kts | 274° |
| 2026-05-05 14:47 | 54.08345 | -22.78547 | 36267 ft | 471 kts | 274° |
| 2026-05-05 14:48 | 54.08545 | -22.89695 | 36274 ft | 471 kts | 274° |
| 2026-05-05 14:48 | 54.08734 | -23.00855 | 36275 ft | 471 kts | 274° |
| 2026-05-05 14:49 | 54.08913 | -23.11944 | 36273 ft | 471 kts | 274° |
| 2026-05-05 14:49 | 54.09082 | -23.23113 | 36273 ft | 471 kts | 274° |
| 2026-05-05 14:50 | 54.09240 | -23.34295 | 36273 ft | 472 kts | 274° |
| 2026-05-05 14:50 | 54.09389 | -23.45492 | 36278 ft | 472 kts | 274° |
| 2026-05-05 14:51 | 54.09527 | -23.56692 | 36277 ft | 473 kts | 274° |
| 2026-05-05 14:51 | 54.09654 | -23.67824 | 36273 ft | 473 kts | 274° |
| 2026-05-05 14:52 | 54.09772 | -23.79047 | 36277 ft | 473 kts | 274° |
| 2026-05-05 14:52 | 54.09880 | -23.90275 | 36278 ft | 474 kts | 274° |
| 2026-05-05 14:53 | 54.09977 | -24.01515 | 36280 ft | 474 kts | 274° |
| 2026-05-05 14:53 | 54.10063 | -24.12687 | 36280 ft | 474 kts | 274° |
| 2026-05-05 14:54 | 54.10139 | -24.23937 | 36279 ft | 474 kts | 274° |
| 2026-05-05 14:54 | 54.10204 | -24.35195 | 36285 ft | 474 kts | 274° |
| 2026-05-05 14:55 | 54.10260 | -24.46443 | 36287 ft | 475 kts | 274° |
| 2026-05-05 14:55 | 54.10304 | -24.57639 | 36284 ft | 475 kts | 274° |
| 2026-05-05 14:56 | 54.10338 | -24.68911 | 36283 ft | 475 kts | 274° |
| 2026-05-05 14:56 | 54.10362 | -24.80189 | 36284 ft | 475 kts | 274° |
| 2026-05-05 14:57 | 54.10375 | -24.91376 | 36287 ft | 475 kts | 274° |
| 2026-05-05 14:57 | 54.10378 | -25.02649 | 36285 ft | 475 kts | 274° |
| 2026-05-05 14:58 | 54.10370 | -25.13922 | 36284 ft | 475 kts | 274° |
| 2026-05-05 14:58 | 54.10352 | -25.25121 | 36282 ft | 475 kts | 274° |
| 2026-05-05 14:59 | 54.10323 | -25.36388 | 36288 ft | 475 kts | 274° |
| 2026-05-05 14:59 | 54.10284 | -25.47651 | 36279 ft | 475 kts | 274° |
| 2026-05-05 15:00 | 54.10243 | -25.57010 | 36289 ft | 475 kts | 274° |
| 2026-05-05 15:00 | 54.10174 | -25.70094 | 36285 ft | 475 kts | 273° |
| 2026-05-05 15:01 | 54.10103 | -25.81350 | 36297 ft | 474 kts | 273° |
| 2026-05-05 15:01 | 54.10022 | -25.92613 | 36297 ft | 475 kts | 273° |
| 2026-05-05 15:02 | 54.09931 | -26.03795 | 36290 ft | 475 kts | 273° |
| 2026-05-05 15:02 | 54.09829 | -26.15067 | 36296 ft | 475 kts | 273° |
| 2026-05-05 15:03 | 54.09716 | -26.26327 | 36295 ft | 475 kts | 273° |
| 2026-05-05 15:03 | 54.09594 | -26.37526 | 36296 ft | 475 kts | 273° |
| 2026-05-05 15:04 | 54.09460 | -26.48785 | 36298 ft | 475 kts | 273° |
| 2026-05-05 15:04 | 54.09316 | -26.60050 | 36298 ft | 475 kts | 273° |
| 2026-05-05 15:05 | 54.09080 | -26.76959 | 36296 ft | 476 kts | 273° |
| 2026-05-05 15:06 | 54.08909 | -26.88225 | 36302 ft | 476 kts | 273° |
| 2026-05-05 15:06 | 54.08729 | -26.99436 | 36303 ft | 476 kts | 273° |
| 2026-05-05 15:07 | 54.08537 | -27.10725 | 36307 ft | 476 kts | 273° |
| 2026-05-05 15:07 | 54.08334 | -27.22010 | 36307 ft | 476 kts | 272° |
| 2026-05-05 15:08 | 54.08121 | -27.33283 | 36299 ft | 476 kts | 272° |
| 2026-05-05 15:08 | 54.07899 | -27.44474 | 36300 ft | 476 kts | 272° |
| 2026-05-05 15:09 | 54.07665 | -27.55758 | 36302 ft | 476 kts | 272° |
| 2026-05-05 15:09 | 54.07421 | -27.67026 | 36304 ft | 476 kts | 272° |
| 2026-05-05 15:10 | 54.07166 | -27.78295 | 36307 ft | 475 kts | 272° |
| 2026-05-05 15:10 | 54.06903 | -27.89470 | 36307 ft | 475 kts | 272° |
| 2026-05-05 15:11 | 54.06627 | -28.00720 | 36306 ft | 475 kts | 272° |
| 2026-05-05 15:11 | 54.06341 | -28.11974 | 36307 ft | 475 kts | 272° |
| 2026-05-05 15:12 | 54.06044 | -28.23216 | 36307 ft | 475 kts | 272° |
| 2026-05-05 15:12 | 54.05740 | -28.34381 | 36310 ft | 475 kts | 271° |
| 2026-05-05 15:13 | 54.05423 | -28.45608 | 36311 ft | 474 kts | 271° |
| 2026-05-05 15:13 | 54.05095 | -28.56831 | 36311 ft | 474 kts | 271° |
| 2026-05-05 15:14 | 54.04758 | -28.68052 | 36308 ft | 474 kts | 271° |
| 2026-05-05 15:14 | 54.04412 | -28.79187 | 36310 ft | 473 kts | 271° |
| 2026-05-05 15:15 | 54.04054 | -28.90381 | 36313 ft | 473 kts | 271° |
| 2026-05-05 15:15 | 54.03686 | -29.01568 | 36305 ft | 473 kts | 271° |
| 2026-05-05 15:16 | 54.03310 | -29.12683 | 36313 ft | 473 kts | 270° |
| 2026-05-05 15:16 | 54.02922 | -29.23862 | 36304 ft | 472 kts | 270° |
| 2026-05-05 15:17 | 54.02523 | -29.35033 | 36311 ft | 472 kts | 270° |
| 2026-05-05 15:17 | 54.02115 | -29.46184 | 36303 ft | 472 kts | 270° |
| 2026-05-05 15:18 | 54.01699 | -29.57255 | 36307 ft | 472 kts | 270° |
| 2026-05-05 15:18 | 54.01270 | -29.68415 | 36300 ft | 471 kts | 269° |
| 2026-05-05 15:19 | 54.00834 | -29.79478 | 36301 ft | 471 kts | 269° |
| 2026-05-05 15:19 | 54.00387 | -29.90609 | 36381 ft | 473 kts | 269° |
| 2026-05-05 15:19 | 54.00159 | -29.96184 | 36636 ft | 472 kts | 269° |
| 2026-05-05 15:20 | 53.99924 | -30.01741 | 36928 ft | 470 kts | 268° |
| 2026-05-05 15:20 | 53.99639 | -30.07293 | 37200 ft | 470 kts | 268° |
| 2026-05-05 15:20 | 53.99319 | -30.12814 | 37452 ft | 469 kts | 267° |
| 2026-05-05 15:20 | 53.98985 | -30.18343 | 37673 ft | 469 kts | 267° |
| 2026-05-05 15:21 | 53.98646 | -30.23862 | 37902 ft | 469 kts | 267° |
| 2026-05-05 15:21 | 53.98314 | -30.29306 | 38106 ft | 469 kts | 266° |
| 2026-05-05 15:21 | 53.97979 | -30.34813 | 38227 ft | 470 kts | 266° |
| 2026-05-05 15:22 | 53.97307 | -30.45937 | 38292 ft | 474 kts | 266° |
| 2026-05-05 15:22 | 53.96631 | -30.57043 | 38285 ft | 469 kts | 266° |
| 2026-05-05 15:23 | 53.95954 | -30.67971 | 38288 ft | 465 kts | 266° |
| 2026-05-05 15:23 | 53.95269 | -30.78890 | 38290 ft | 463 kts | 266° |
| 2026-05-05 15:24 | 53.94577 | -30.89774 | 38291 ft | 463 kts | 265° |
| 2026-05-05 15:24 | 53.93874 | -31.00655 | 38293 ft | 464 kts | 265° |
| 2026-05-05 15:25 | 53.93159 | -31.11571 | 38293 ft | 466 kts | 265° |
| 2026-05-05 15:25 | 53.92436 | -31.22448 | 38290 ft | 468 kts | 265° |
| 2026-05-05 15:26 | 53.91693 | -31.33466 | 38286 ft | 470 kts | 265° |
| 2026-05-05 15:26 | 53.90939 | -31.44493 | 38286 ft | 471 kts | 264° |
| 2026-05-05 15:27 | 53.90177 | -31.55478 | 38277 ft | 471 kts | 264° |
| 2026-05-05 15:27 | 53.89401 | -31.66524 | 38280 ft | 471 kts | 264° |
| 2026-05-05 15:28 | 53.88621 | -31.77488 | 38278 ft | 470 kts | 264° |
| 2026-05-05 15:28 | 53.87828 | -31.88477 | 38276 ft | 469 kts | 264° |
| 2026-05-05 15:29 | 53.87026 | -31.99464 | 38270 ft | 468 kts | 263° |
| 2026-05-05 15:29 | 53.86216 | -32.10409 | 38268 ft | 467 kts | 263° |
| 2026-05-05 15:30 | 53.85397 | -32.21344 | 38267 ft | 467 kts | 263° |
| 2026-05-05 15:30 | 53.84574 | -32.32188 | 38263 ft | 466 kts | 263° |
| 2026-05-05 15:31 | 53.83735 | -32.43100 | 38263 ft | 466 kts | 262° |
| 2026-05-05 15:31 | 53.82888 | -32.53996 | 38258 ft | 466 kts | 262° |
| 2026-05-05 15:32 | 53.82036 | -32.64829 | 38259 ft | 467 kts | 262° |
| 2026-05-05 15:32 | 53.81168 | -32.75728 | 38256 ft | 467 kts | 262° |
| 2026-05-05 15:33 | 53.80436 | -32.84817 | 38247 ft | 468 kts | 261° |
| 2026-05-05 15:33 | 53.79547 | -32.95751 | 38246 ft | 468 kts | 261° |
| 2026-05-05 15:34 | 53.78653 | -33.06616 | 38241 ft | 469 kts | 261° |
| 2026-05-05 15:34 | 53.77742 | -33.17560 | 38242 ft | 469 kts | 261° |
| 2026-05-05 15:35 | 53.76821 | -33.28500 | 38233 ft | 470 kts | 260° |
| 2026-05-05 15:35 | 53.75895 | -33.39380 | 38232 ft | 470 kts | 260° |
| 2026-05-05 15:36 | 53.74953 | -33.50331 | 38229 ft | 470 kts | 260° |
| 2026-05-05 15:36 | 53.73999 | -33.61292 | 38222 ft | 471 kts | 259° |
| 2026-05-05 15:37 | 53.73036 | -33.72244 | 38216 ft | 471 kts | 259° |
| 2026-05-05 15:37 | 53.72069 | -33.83115 | 38212 ft | 471 kts | 259° |
| 2026-05-05 15:38 | 53.71083 | -33.94084 | 38217 ft | 472 kts | 259° |
| 2026-05-05 15:38 | 53.70088 | -34.05041 | 38206 ft | 471 kts | 259° |
| 2026-05-05 15:39 | 53.69090 | -34.15918 | 38198 ft | 471 kts | 259° |
| 2026-05-05 15:39 | 53.68077 | -34.26839 | 38202 ft | 470 kts | 258° |
| 2026-05-05 15:40 | 53.67057 | -34.37739 | 38204 ft | 471 kts | 258° |
| 2026-05-05 15:40 | 53.66027 | -34.48613 | 38197 ft | 471 kts | 258° |
| 2026-05-05 15:41 | 53.64985 | -34.59515 | 38187 ft | 471 kts | 258° |
| 2026-05-05 15:41 | 53.63933 | -34.70417 | 38182 ft | 470 kts | 258° |
| 2026-05-05 15:42 | 53.62873 | -34.81284 | 38174 ft | 470 kts | 258° |
| 2026-05-05 15:42 | 53.61805 | -34.92138 | 38163 ft | 469 kts | 258° |
| 2026-05-05 15:43 | 53.60733 | -35.02918 | 38170 ft | 469 kts | 258° |
| 2026-05-05 15:43 | 53.59646 | -35.13750 | 38162 ft | 469 kts | 258° |
| 2026-05-05 15:44 | 53.58547 | -35.24595 | 38156 ft | 469 kts | 257° |
| 2026-05-05 15:44 | 53.57437 | -35.35450 | 38159 ft | 470 kts | 257° |
| 2026-05-05 15:45 | 53.56319 | -35.46275 | 38152 ft | 470 kts | 257° |
| 2026-05-05 15:45 | 53.55188 | -35.57130 | 38148 ft | 471 kts | 257° |
| 2026-05-05 15:46 | 53.54053 | -35.67931 | 38133 ft | 472 kts | 257° |
| 2026-05-05 15:46 | 53.52900 | -35.78795 | 38143 ft | 472 kts | 257° |
| 2026-05-05 15:47 | 53.51736 | -35.89669 | 38140 ft | 473 kts | 257° |
| 2026-05-05 15:47 | 53.50559 | -36.00564 | 38130 ft | 473 kts | 257° |
| 2026-05-05 15:48 | 53.49374 | -36.11428 | 38135 ft | 473 kts | 257° |
| 2026-05-05 15:48 | 53.48177 | -36.22310 | 38129 ft | 473 kts | 257° |
| 2026-05-05 15:49 | 53.46980 | -36.33101 | 38129 ft | 473 kts | 257° |
| 2026-05-05 15:49 | 53.45763 | -36.43971 | 38129 ft | 473 kts | 256° |
| 2026-05-05 15:50 | 53.44538 | -36.54830 | 38123 ft | 473 kts | 256° |
| 2026-05-05 15:50 | 53.43304 | -36.65671 | 38121 ft | 473 kts | 256° |
| 2026-05-05 15:51 | 53.42065 | -36.76459 | 38116 ft | 472 kts | 256° |
| 2026-05-05 15:51 | 53.40812 | -36.87284 | 38118 ft | 472 kts | 256° |
| 2026-05-05 15:52 | 53.39550 | -36.98093 | 38121 ft | 471 kts | 256° |
| 2026-05-05 15:52 | 53.38289 | -37.08805 | 38116 ft | 471 kts | 256° |
| 2026-05-05 15:53 | 53.37012 | -37.19561 | 38120 ft | 471 kts | 256° |
| 2026-05-05 15:53 | 53.35726 | -37.30308 | 38120 ft | 470 kts | 256° |
| 2026-05-05 15:54 | 53.34430 | -37.41051 | 38121 ft | 470 kts | 256° |
| 2026-05-05 15:54 | 53.33133 | -37.51708 | 38124 ft | 470 kts | 256° |
| 2026-05-05 15:55 | 53.31820 | -37.62423 | 38125 ft | 470 kts | 255° |
| 2026-05-05 15:55 | 53.30495 | -37.73147 | 38123 ft | 470 kts | 255° |
| 2026-05-05 15:56 | 53.29170 | -37.83784 | 38123 ft | 470 kts | 255° |
| 2026-05-05 15:56 | 53.27829 | -37.94472 | 38128 ft | 470 kts | 255° |
| 2026-05-05 15:57 | 53.26477 | -38.05160 | 38124 ft | 470 kts | 255° |
| 2026-05-05 15:57 | 53.25124 | -38.15781 | 38130 ft | 470 kts | 255° |
| 2026-05-05 15:58 | 53.23753 | -38.26452 | 38131 ft | 470 kts | 255° |
| 2026-05-05 15:58 | 53.22371 | -38.37133 | 38127 ft | 470 kts | 255° |
| 2026-05-05 15:59 | 53.20982 | -38.47791 | 38125 ft | 470 kts | 255° |
| 2026-05-05 15:59 | 53.19582 | -38.58452 | 38126 ft | 470 kts | 255° |
| 2026-05-05 16:00 | 53.18180 | -38.69043 | 38125 ft | 470 kts | 255° |
| 2026-05-05 16:00 | 53.16759 | -38.79694 | 38117 ft | 470 kts | 254° |
| 2026-05-05 16:01 | 53.15330 | -38.90331 | 38124 ft | 470 kts | 254° |
| 2026-05-05 16:01 | 53.13895 | -39.00958 | 38124 ft | 470 kts | 254° |
| 2026-05-05 16:02 | 53.12448 | -39.11582 | 38123 ft | 470 kts | 254° |
| 2026-05-05 16:02 | 53.10993 | -39.22189 | 38119 ft | 469 kts | 254° |
| 2026-05-05 16:03 | 53.09538 | -39.32716 | 38125 ft | 469 kts | 254° |
| 2026-05-05 16:03 | 53.08067 | -39.43286 | 38112 ft | 469 kts | 254° |
| 2026-05-05 16:04 | 53.06585 | -39.53861 | 38120 ft | 468 kts | 254° |
| 2026-05-05 16:04 | 53.05097 | -39.64408 | 38110 ft | 468 kts | 254° |
| 2026-05-05 16:05 | 53.03601 | -39.74938 | 38115 ft | 468 kts | 254° |
| 2026-05-05 16:05 | 53.02097 | -39.85450 | 38108 ft | 467 kts | 254° |
| 2026-05-05 16:06 | 53.00588 | -39.95940 | 38114 ft | 467 kts | 254° |
| 2026-05-05 16:06 | 52.99062 | -40.06345 | 38107 ft | 466 kts | 254° |
| 2026-05-05 16:07 | 52.97474 | -40.16801 | 38113 ft | 466 kts | 253° |
| 2026-05-05 16:07 | 52.95878 | -40.27214 | 38104 ft | 465 kts | 253° |
| 2026-05-05 16:08 | 52.94293 | -40.37528 | 38112 ft | 464 kts | 253° |
| 2026-05-05 16:08 | 52.92689 | -40.47929 | 38100 ft | 464 kts | 253° |
| 2026-05-05 16:09 | 52.91084 | -40.58274 | 38108 ft | 463 kts | 253° |
| 2026-05-05 16:09 | 52.89472 | -40.68599 | 38096 ft | 462 kts | 253° |
| 2026-05-05 16:10 | 52.87864 | -40.78837 | 38101 ft | 462 kts | 253° |
| 2026-05-05 16:10 | 52.86237 | -40.89126 | 38089 ft | 461 kts | 253° |
| 2026-05-05 16:11 | 52.84604 | -40.99388 | 38100 ft | 461 kts | 253° |
| 2026-05-05 16:12 | 52.81317 | -41.19856 | 38096 ft | 460 kts | 253° |
| 2026-05-05 16:13 | 52.77176 | -41.45299 | 38090 ft | 459 kts | 253° |
| 2026-05-05 16:13 | 52.75504 | -41.55463 | 38085 ft | 458 kts | 253° |
| 2026-05-05 16:14 | 52.72148 | -41.75683 | 38080 ft | 457 kts | 252° |
| 2026-05-05 16:15 | 52.68754 | -41.95895 | 38077 ft | 456 kts | 252° |
| 2026-05-05 16:16 | 52.65343 | -42.15977 | 38069 ft | 455 kts | 252° |
| 2026-05-05 16:17 | 52.62754 | -42.31060 | 38059 ft | 455 kts | 252° |
| 2026-05-05 16:18 | 52.60152 | -42.46094 | 38064 ft | 455 kts | 252° |
| 2026-05-05 16:19 | 52.57542 | -42.61049 | 38061 ft | 455 kts | 252° |
| 2026-05-05 16:19 | 52.55203 | -42.74346 | 38052 ft | 455 kts | 252° |
| 2026-05-05 16:20 | 52.51656 | -42.94324 | 38045 ft | 454 kts | 252° |
| 2026-05-05 16:22 | 52.47198 | -43.19123 | 38042 ft | 453 kts | 251° |
| 2026-05-05 16:23 | 52.43608 | -43.38851 | 38034 ft | 452 kts | 251° |
| 2026-05-05 16:23 | 52.40898 | -43.53600 | 38023 ft | 450 kts | 251° |
| 2026-05-05 16:24 | 52.39085 | -43.63406 | 38023 ft | 450 kts | 251° |
| 2026-05-05 16:25 | 52.36350 | -43.78099 | 38019 ft | 448 kts | 251° |
| 2026-05-05 16:25 | 52.33614 | -43.92683 | 38009 ft | 447 kts | 250° |
| 2026-05-05 16:26 | 52.29946 | -44.12059 | 38002 ft | 447 kts | 250° |
| 2026-05-05 16:27 | 52.28092 | -44.21776 | 37998 ft | 446 kts | 250° |
| 2026-05-05 16:27 | 52.26235 | -44.31455 | 37999 ft | 446 kts | 250° |
| 2026-05-05 16:28 | 52.24373 | -44.41118 | 37992 ft | 446 kts | 250° |
| 2026-05-05 16:28 | 52.22513 | -44.50717 | 37984 ft | 446 kts | 250° |
| 2026-05-05 16:29 | 52.20633 | -44.60373 | 37988 ft | 447 kts | 249° |
| 2026-05-05 16:29 | 52.18745 | -44.70022 | 37981 ft | 446 kts | 249° |
| 2026-05-05 16:30 | 52.16846 | -44.79678 | 37978 ft | 446 kts | 249° |
| 2026-05-05 16:30 | 52.14945 | -44.89301 | 37972 ft | 446 kts | 249° |
| 2026-05-05 16:31 | 52.13033 | -44.98923 | 37970 ft | 446 kts | 249° |
| 2026-05-05 16:31 | 52.11128 | -45.08471 | 37965 ft | 446 kts | 249° |
| 2026-05-05 16:32 | 52.09203 | -45.18067 | 37964 ft | 446 kts | 248° |
| 2026-05-05 16:32 | 52.07272 | -45.27646 | 37954 ft | 445 kts | 248° |
| 2026-05-05 16:33 | 52.05335 | -45.37209 | 37954 ft | 445 kts | 248° |
| 2026-05-05 16:33 | 52.03387 | -45.46780 | 37950 ft | 445 kts | 248° |
| 2026-05-05 16:34 | 52.01448 | -45.56258 | 37952 ft | 444 kts | 248° |
| 2026-05-05 16:34 | 51.99489 | -45.65793 | 37943 ft | 444 kts | 248° |
| 2026-05-05 16:35 | 51.97527 | -45.75290 | 37939 ft | 444 kts | 247° |
| 2026-05-05 16:35 | 51.95558 | -45.84780 | 37939 ft | 444 kts | 247° |
| 2026-05-05 16:36 | 51.93590 | -45.94222 | 37935 ft | 444 kts | 247° |
| 2026-05-05 16:36 | 51.91600 | -46.03721 | 37930 ft | 444 kts | 246° |
| 2026-05-05 16:37 | 51.89603 | -46.13214 | 37925 ft | 445 kts | 246° |
| 2026-05-05 16:37 | 51.87609 | -46.22641 | 37924 ft | 445 kts | 246° |
| 2026-05-05 16:38 | 51.85593 | -46.32131 | 37922 ft | 446 kts | 246° |
| 2026-05-05 16:38 | 51.83571 | -46.41607 | 37915 ft | 446 kts | 246° |
| 2026-05-05 16:39 | 51.81533 | -46.51109 | 37913 ft | 447 kts | 246° |
| 2026-05-05 16:39 | 51.79504 | -46.60531 | 37906 ft | 447 kts | 245° |
| 2026-05-05 16:40 | 51.77443 | -46.70052 | 37909 ft | 448 kts | 245° |
| 2026-05-05 16:40 | 51.75375 | -46.79563 | 37904 ft | 449 kts | 245° |
| 2026-05-05 16:41 | 51.73297 | -46.89079 | 37906 ft | 450 kts | 245° |
| 2026-05-05 16:41 | 51.71217 | -46.98556 | 37897 ft | 450 kts | 245° |
| 2026-05-05 16:42 | 51.69114 | -47.08096 | 37902 ft | 451 kts | 245° |
| 2026-05-05 16:42 | 51.67002 | -47.17632 | 37892 ft | 452 kts | 244° |
| 2026-05-05 16:43 | 51.64879 | -47.27175 | 37895 ft | 453 kts | 244° |
| 2026-05-05 16:43 | 51.62744 | -47.36729 | 37888 ft | 454 kts | 244° |
| 2026-05-05 16:44 | 51.60608 | -47.46239 | 37887 ft | 455 kts | 244° |
| 2026-05-05 16:44 | 51.58445 | -47.55833 | 37886 ft | 456 kts | 244° |
| 2026-05-05 16:45 | 51.56264 | -47.65457 | 37882 ft | 457 kts | 244° |
| 2026-05-05 16:45 | 51.54090 | -47.75010 | 37879 ft | 458 kts | 244° |
| 2026-05-05 16:46 | 51.51890 | -47.84632 | 37879 ft | 459 kts | 244° |
| 2026-05-05 16:46 | 51.50782 | -47.89447 | 38311 ft | 461 kts | 248° |
| 2026-05-05 16:46 | 51.49662 | -47.94306 | 38102 ft | 467 kts | 249° |
| 2026-05-05 16:47 | 51.48533 | -47.99207 | 37994 ft | 468 kts | 249° |
| 2026-05-05 16:47 | 51.47403 | -48.04111 | 37939 ft | 468 kts | 249° |
| 2026-05-05 16:47 | 51.45142 | -48.13877 | 37863 ft | 465 kts | 248° |
| 2026-05-05 16:48 | 51.42897 | -48.23522 | 37865 ft | 463 kts | 248° |
| 2026-05-05 16:48 | 51.40643 | -48.33159 | 37865 ft | 460 kts | 248° |
| 2026-05-05 16:49 | 51.38391 | -48.42745 | 37868 ft | 460 kts | 248° |
| 2026-05-05 16:49 | 51.36128 | -48.52330 | 37863 ft | 461 kts | 248° |
| 2026-05-05 16:50 | 51.33849 | -48.61943 | 37861 ft | 463 kts | 248° |
| 2026-05-05 16:50 | 51.31568 | -48.71524 | 37857 ft | 464 kts | 248° |
| 2026-05-05 16:51 | 51.29255 | -48.81196 | 37855 ft | 466 kts | 248° |
| 2026-05-05 16:51 | 51.26927 | -48.90886 | 37849 ft | 467 kts | 248° |
| 2026-05-05 16:52 | 51.24590 | -49.00572 | 37846 ft | 468 kts | 248° |
| 2026-05-05 16:52 | 51.22254 | -49.10209 | 37843 ft | 468 kts | 248° |
| 2026-05-05 16:53 | 51.19896 | -49.19899 | 37839 ft | 468 kts | 248° |
| 2026-05-05 16:53 | 51.17534 | -49.29559 | 37840 ft | 467 kts | 248° |
| 2026-05-05 16:54 | 51.15179 | -49.39149 | 37839 ft | 467 kts | 248° |
| 2026-05-05 16:54 | 51.12800 | -49.48792 | 37835 ft | 466 kts | 248° |
| 2026-05-05 16:55 | 51.10418 | -49.58411 | 37835 ft | 466 kts | 248° |
| 2026-05-05 16:55 | 51.08047 | -49.67942 | 37832 ft | 466 kts | 248° |
| 2026-05-05 16:56 | 51.05654 | -49.77520 | 37833 ft | 466 kts | 248° |
| 2026-05-05 16:56 | 51.03256 | -49.87077 | 37826 ft | 465 kts | 248° |
| 2026-05-05 16:57 | 51.00848 | -49.96641 | 37826 ft | 465 kts | 248° |
| 2026-05-05 16:57 | 50.98487 | -50.06142 | 37822 ft | 465 kts | 249° |
| 2026-05-05 16:58 | 50.96185 | -50.15773 | 37821 ft | 465 kts | 249° |
| 2026-05-05 16:58 | 50.93888 | -50.25385 | 37820 ft | 465 kts | 249° |
| 2026-05-05 16:59 | 50.91574 | -50.34970 | 37816 ft | 465 kts | 249° |
| 2026-05-05 16:59 | 50.89260 | -50.44489 | 37815 ft | 465 kts | 249° |
| 2026-05-05 17:00 | 50.86922 | -50.54055 | 37811 ft | 465 kts | 249° |
| 2026-05-05 17:00 | 50.84576 | -50.63614 | 37811 ft | 465 kts | 249° |
| 2026-05-05 17:01 | 50.82227 | -50.73146 | 37810 ft | 465 kts | 249° |
| 2026-05-05 17:01 | 50.79870 | -50.82669 | 37806 ft | 465 kts | 249° |
| 2026-05-05 17:02 | 50.77504 | -50.92190 | 37804 ft | 465 kts | 249° |
| 2026-05-05 17:02 | 50.75132 | -51.01692 | 37808 ft | 465 kts | 248° |
| 2026-05-05 17:03 | 50.72765 | -51.11134 | 37801 ft | 464 kts | 248° |
| 2026-05-05 17:03 | 50.70380 | -51.20608 | 37800 ft | 464 kts | 248° |
| 2026-05-05 17:04 | 50.67985 | -51.30082 | 37794 ft | 464 kts | 248° |
| 2026-05-05 17:04 | 50.65599 | -51.39481 | 37793 ft | 464 kts | 248° |
| 2026-05-05 17:05 | 50.63188 | -51.48940 | 37796 ft | 464 kts | 248° |
| 2026-05-05 17:05 | 50.60770 | -51.58385 | 37788 ft | 464 kts | 248° |
| 2026-05-05 17:06 | 50.58344 | -51.67821 | 37787 ft | 464 kts | 248° |
| 2026-05-05 17:06 | 50.55927 | -51.77186 | 37787 ft | 465 kts | 248° |
| 2026-05-05 17:07 | 50.53489 | -51.86597 | 37787 ft | 465 kts | 248° |
| 2026-05-05 17:07 | 50.51042 | -51.96007 | 37783 ft | 465 kts | 248° |
| 2026-05-05 17:08 | 50.49024 | -52.03851 | 37784 ft | 465 kts | 249° |
| 2026-05-05 17:08 | 50.46739 | -52.13363 | 37782 ft | 464 kts | 250° |
| 2026-05-05 17:09 | 50.44500 | -52.22805 | 37779 ft | 464 kts | 250° |
| 2026-05-05 17:09 | 50.42225 | -52.32279 | 37777 ft | 464 kts | 250° |
| 2026-05-05 17:10 | 50.39927 | -52.41750 | 37778 ft | 464 kts | 250° |
| 2026-05-05 17:10 | 50.37620 | -52.51199 | 37777 ft | 463 kts | 250° |
| 2026-05-05 17:11 | 50.35324 | -52.60564 | 37777 ft | 462 kts | 250° |
| 2026-05-05 17:11 | 50.33010 | -52.69969 | 37774 ft | 461 kts | 250° |
| 2026-05-05 17:12 | 50.30695 | -52.79337 | 37768 ft | 461 kts | 250° |
| 2026-05-05 17:12 | 50.28389 | -52.88629 | 37771 ft | 460 kts | 250° |
| 2026-05-05 17:13 | 50.26059 | -52.97976 | 37773 ft | 459 kts | 249° |
| 2026-05-05 17:13 | 50.23744 | -53.07228 | 37768 ft | 459 kts | 249° |
| 2026-05-05 17:14 | 50.21409 | -53.16521 | 37768 ft | 458 kts | 249° |
| 2026-05-05 17:14 | 50.19069 | -53.25796 | 37766 ft | 458 kts | 249° |
| 2026-05-05 17:15 | 50.16742 | -53.34978 | 37769 ft | 458 kts | 249° |
| 2026-05-05 17:15 | 50.14389 | -53.44227 | 37770 ft | 458 kts | 249° |
| 2026-05-05 17:16 | 50.12031 | -53.53458 | 37766 ft | 457 kts | 249° |
| 2026-05-05 17:16 | 50.09670 | -53.62666 | 37773 ft | 457 kts | 249° |
| 2026-05-05 17:17 | 50.07318 | -53.71799 | 37772 ft | 457 kts | 249° |
| 2026-05-05 17:17 | 50.04941 | -53.80993 | 37766 ft | 458 kts | 249° |
| 2026-05-05 17:18 | 50.02556 | -53.90189 | 37769 ft | 458 kts | 249° |
| 2026-05-05 17:18 | 50.00156 | -53.99378 | 37769 ft | 459 kts | 248° |
| 2026-05-05 17:19 | 49.97381 | -54.08336 | 37775 ft | 460 kts | 244° |
| 2026-05-05 17:19 | 49.94502 | -54.17174 | 37768 ft | 461 kts | 244° |
| 2026-05-05 17:20 | 49.91601 | -54.26078 | 37759 ft | 462 kts | 244° |
| 2026-05-05 17:20 | 49.88700 | -54.35007 | 37763 ft | 463 kts | 244° |
| 2026-05-05 17:21 | 49.85793 | -54.43943 | 37759 ft | 464 kts | 244° |
| 2026-05-05 17:22 | 49.81428 | -54.57306 | 37746 ft | 465 kts | 244° |
| 2026-05-05 17:22 | 49.78492 | -54.66255 | 37739 ft | 466 kts | 244° |
| 2026-05-05 17:23 | 49.75564 | -54.75142 | 37730 ft | 466 kts | 244° |
| 2026-05-05 17:23 | 49.72611 | -54.84078 | 37733 ft | 466 kts | 244° |
| 2026-05-05 17:24 | 49.69648 | -54.93009 | 37733 ft | 466 kts | 244° |
| 2026-05-05 17:24 | 49.66685 | -55.01910 | 37729 ft | 466 kts | 244° |
| 2026-05-05 17:25 | 49.63734 | -55.10742 | 37731 ft | 465 kts | 244° |
| 2026-05-05 17:25 | 49.60763 | -55.19604 | 37733 ft | 464 kts | 244° |
| 2026-05-05 17:26 | 49.57789 | -55.28445 | 37736 ft | 464 kts | 244° |
| 2026-05-05 17:26 | 49.54829 | -55.37214 | 37741 ft | 463 kts | 244° |
| 2026-05-05 17:27 | 49.51847 | -55.46018 | 37744 ft | 462 kts | 244° |
| 2026-05-05 17:27 | 49.48868 | -55.54784 | 37745 ft | 462 kts | 244° |
| 2026-05-05 17:28 | 49.45886 | -55.63524 | 37750 ft | 461 kts | 244° |
| 2026-05-05 17:28 | 49.42922 | -55.72185 | 37753 ft | 460 kts | 244° |
| 2026-05-05 17:29 | 49.39937 | -55.80878 | 37763 ft | 459 kts | 244° |
| 2026-05-05 17:29 | 49.36948 | -55.89551 | 37759 ft | 459 kts | 244° |
| 2026-05-05 17:30 | 49.33961 | -55.98192 | 37767 ft | 458 kts | 244° |
| 2026-05-05 17:30 | 49.30990 | -56.06757 | 37771 ft | 457 kts | 244° |
| 2026-05-05 17:31 | 49.27997 | -56.15358 | 37777 ft | 456 kts | 244° |
| 2026-05-05 17:31 | 49.25000 | -56.23938 | 37789 ft | 455 kts | 244° |
| 2026-05-05 17:32 | 49.22028 | -56.32419 | 37783 ft | 455 kts | 244° |
| 2026-05-05 17:32 | 49.19037 | -56.40929 | 37793 ft | 454 kts | 244° |
| 2026-05-05 17:33 | 49.16044 | -56.49413 | 37791 ft | 453 kts | 244° |
| 2026-05-05 17:33 | 49.13049 | -56.57879 | 37799 ft | 452 kts | 244° |
| 2026-05-05 17:34 | 49.10051 | -56.66323 | 37797 ft | 452 kts | 244° |
| 2026-05-05 17:34 | 49.07069 | -56.74697 | 37801 ft | 452 kts | 244° |
| 2026-05-05 17:35 | 49.04062 | -56.83111 | 37799 ft | 451 kts | 244° |
| 2026-05-05 17:35 | 49.01054 | -56.91503 | 37808 ft | 451 kts | 244° |
| 2026-05-05 17:36 | 48.98031 | -56.99910 | 37798 ft | 452 kts | 244° |
| 2026-05-05 17:36 | 48.95008 | -57.08289 | 37815 ft | 452 kts | 244° |
| 2026-05-05 17:37 | 48.91975 | -57.16669 | 37817 ft | 452 kts | 244° |
| 2026-05-05 17:37 | 48.88950 | -57.24998 | 37830 ft | 453 kts | 244° |
| 2026-05-05 17:38 | 48.85894 | -57.33387 | 37828 ft | 453 kts | 244° |
| 2026-05-05 17:38 | 48.82833 | -57.41764 | 37850 ft | 453 kts | 244° |
| 2026-05-05 17:39 | 48.79787 | -57.50079 | 37841 ft | 453 kts | 244° |
| 2026-05-05 17:39 | 48.76717 | -57.58426 | 37846 ft | 453 kts | 244° |
| 2026-05-05 17:40 | 48.73641 | -57.66772 | 37864 ft | 452 kts | 244° |
| 2026-05-05 17:40 | 48.70531 | -57.74988 | 37859 ft | 453 kts | 242° |
| 2026-05-05 17:41 | 48.67202 | -57.83097 | 37866 ft | 453 kts | 241° |
| 2026-05-05 17:41 | 48.63834 | -57.91192 | 37885 ft | 453 kts | 241° |
| 2026-05-05 17:42 | 48.60490 | -57.99277 | 37877 ft | 453 kts | 241° |
| 2026-05-05 17:42 | 48.57159 | -58.07360 | 37879 ft | 453 kts | 241° |
| 2026-05-05 17:43 | 48.53852 | -58.15376 | 37885 ft | 452 kts | 241° |
| 2026-05-05 17:43 | 48.50515 | -58.23439 | 37897 ft | 452 kts | 241° |
| 2026-05-05 17:44 | 48.47174 | -58.31490 | 37902 ft | 452 kts | 241° |
| 2026-05-05 17:44 | 48.43852 | -58.39468 | 37910 ft | 452 kts | 241° |
| 2026-05-05 17:45 | 48.40485 | -58.47530 | 37908 ft | 453 kts | 241° |
| 2026-05-05 17:45 | 48.37148 | -58.55496 | 37912 ft | 453 kts | 241° |
| 2026-05-05 17:46 | 48.33777 | -58.63519 | 37917 ft | 454 kts | 241° |
| 2026-05-05 17:46 | 48.30393 | -58.71545 | 37913 ft | 454 kts | 241° |
| 2026-05-05 17:47 | 48.27006 | -58.79561 | 37908 ft | 454 kts | 241° |
| 2026-05-05 17:47 | 48.23640 | -58.87501 | 37907 ft | 454 kts | 241° |
| 2026-05-05 17:48 | 48.20244 | -58.95486 | 37922 ft | 453 kts | 241° |
| 2026-05-05 17:48 | 48.16844 | -59.03459 | 37917 ft | 453 kts | 241° |
| 2026-05-05 17:49 | 48.13448 | -59.11400 | 37919 ft | 452 kts | 241° |
| 2026-05-05 17:49 | 48.10067 | -59.19281 | 37917 ft | 452 kts | 241° |
| 2026-05-05 17:50 | 48.06669 | -59.27181 | 37920 ft | 451 kts | 241° |
| 2026-05-05 17:50 | 48.03260 | -59.35082 | 37925 ft | 451 kts | 241° |
| 2026-05-05 17:51 | 47.99851 | -59.42959 | 37920 ft | 451 kts | 240° |
| 2026-05-05 17:51 | 47.96467 | -59.50757 | 37921 ft | 451 kts | 240° |
| 2026-05-05 17:52 | 47.93048 | -59.58614 | 37927 ft | 450 kts | 240° |
| 2026-05-05 17:52 | 47.89628 | -59.66449 | 37923 ft | 450 kts | 240° |
| 2026-05-05 17:53 | 47.86231 | -59.74210 | 37921 ft | 449 kts | 240° |
| 2026-05-05 17:53 | 47.82814 | -59.81994 | 37920 ft | 448 kts | 240° |
| 2026-05-05 17:54 | 47.79397 | -59.89756 | 37919 ft | 447 kts | 240° |
| 2026-05-05 17:54 | 47.75981 | -59.97493 | 37932 ft | 446 kts | 240° |
| 2026-05-05 17:55 | 47.72589 | -60.05153 | 37923 ft | 445 kts | 240° |
| 2026-05-05 17:55 | 47.69177 | -60.12840 | 37917 ft | 444 kts | 240° |
| 2026-05-05 17:56 | 47.65789 | -60.20448 | 37912 ft | 443 kts | 240° |
| 2026-05-05 17:56 | 47.62382 | -60.28080 | 37902 ft | 442 kts | 240° |
| 2026-05-05 17:57 | 47.59560 | -60.34385 | 37907 ft | 441 kts | 240° |
| 2026-05-05 17:57 | 47.55612 | -60.43181 | 37905 ft | 440 kts | 240° |
| 2026-05-05 17:58 | 47.52219 | -60.50719 | 37899 ft | 439 kts | 240° |
| 2026-05-05 17:58 | 47.49395 | -60.56976 | 37895 ft | 439 kts | 240° |
| 2026-05-05 17:59 | 47.40319 | -60.76991 | 37889 ft | 437 kts | 240° |
| 2026-05-05 17:59 | 47.36914 | -60.84465 | 38132 ft | 439 kts | 240° |
| 2026-05-05 17:59 | 47.35213 | -60.88190 | 38479 ft | 436 kts | 239° |
| 2026-05-05 18:00 | 47.33520 | -60.91890 | 38718 ft | 436 kts | 239° |
| 2026-05-05 18:00 | 47.31840 | -60.95561 | 38853 ft | 437 kts | 239° |
| 2026-05-05 18:00 | 47.30138 | -60.99274 | 38975 ft | 438 kts | 239° |
| 2026-05-05 18:00 | 47.28429 | -61.02997 | 39132 ft | 438 kts | 239° |
| 2026-05-05 18:01 | 47.26714 | -61.06727 | 39286 ft | 439 kts | 239° |
| 2026-05-05 18:01 | 47.25002 | -61.10447 | 39426 ft | 440 kts | 239° |
| 2026-05-05 18:01 | 47.23283 | -61.14175 | 39565 ft | 441 kts | 239° |
| 2026-05-05 18:01 | 47.21560 | -61.17908 | 39689 ft | 441 kts | 239° |
| 2026-05-05 18:02 | 47.19830 | -61.21650 | 39780 ft | 443 kts | 238° |
| 2026-05-05 18:02 | 47.16345 | -61.29174 | 39871 ft | 446 kts | 238° |
| 2026-05-05 18:03 | 47.12846 | -61.36705 | 39870 ft | 445 kts | 238° |
| 2026-05-05 18:03 | 47.09386 | -61.44132 | 39868 ft | 442 kts | 238° |